createdAt,value
2022-10-05T00:00:22.217Z,32.8
2022-10-05T00:01:24.111Z,32.8
2022-10-05T00:02:26.060Z,32.9
2022-10-05T00:03:27.760Z,32.8
2022-10-05T00:04:29.409Z,32.8
2022-10-05T00:05:31.114Z,32.8
2022-10-05T00:06:33.041Z,32.8
2022-10-05T00:07:34.860Z,32.7
2022-10-05T00:08:36.503Z,32.7
2022-10-05T00:09:38.123Z,32.8
2022-10-05T00:10:39.655Z,32.8
2022-10-05T00:11:41.194Z,32.8
2022-10-05T00:12:42.873Z,32.8
2022-10-05T00:13:44.406Z,32.8
2022-10-05T00:14:46.040Z,32.9
2022-10-05T00:15:48.016Z,32.9
2022-10-05T00:16:51.001Z,32.9
2022-10-05T00:17:53.759Z,32.9
2022-10-05T00:18:55.507Z,32.9
2022-10-05T00:19:57.183Z,32.9
2022-10-05T00:20:58.851Z,32.9
2022-10-05T00:22:00.452Z,32.9
2022-10-05T00:23:02.109Z,32.9
2022-10-05T00:24:03.844Z,32.9
2022-10-05T00:25:05.793Z,32.9
2022-10-05T00:26:07.432Z,32.9
2022-10-05T00:27:09.052Z,32.9
2022-10-05T00:28:10.771Z,32.9
2022-10-05T00:29:12.779Z,32.9
2022-10-05T00:30:14.556Z,32.9
2022-10-05T00:31:16.635Z,32.9
2022-10-05T00:32:18.442Z,32.8
2022-10-05T00:33:20.076Z,32.9
2022-10-05T00:34:21.719Z,32.8
2022-10-05T00:35:23.371Z,32.8
2022-10-05T00:36:25.220Z,32.9
2022-10-05T00:37:26.756Z,32.9
2022-10-05T00:38:28.353Z,32.9
2022-10-05T00:39:30.029Z,32.9
2022-10-05T00:40:31.579Z,32.9
2022-10-05T00:41:33.238Z,32.9
2022-10-05T00:42:34.858Z,32.9
2022-10-05T00:43:36.407Z,32.9
2022-10-05T00:44:37.948Z,32.9
2022-10-05T00:45:39.862Z,32.9
2022-10-05T00:46:41.881Z,32.9
2022-10-05T00:47:43.767Z,32.9
2022-10-05T00:48:45.403Z,32.9
2022-10-05T00:49:46.934Z,32.9
2022-10-05T00:50:48.494Z,32.9
2022-10-05T00:51:50.158Z,32.9
2022-10-05T00:52:51.743Z,32.9
2022-10-05T00:53:53.273Z,32.9
2022-10-05T00:54:54.866Z,32.9
2022-10-05T00:55:56.574Z,32.9
2022-10-05T00:56:58.160Z,32.9
2022-10-05T00:57:59.817Z,32.9
2022-10-05T00:59:01.517Z,32.9
2022-10-05T01:00:03.302Z,33
2022-10-05T01:01:05.203Z,32.9
2022-10-05T01:02:07.388Z,32.9
2022-10-05T01:03:09.161Z,32.9
2022-10-05T01:04:10.701Z,33
2022-10-05T01:05:12.322Z,33
2022-10-05T01:06:14.054Z,33
2022-10-05T01:07:15.593Z,33
2022-10-05T01:08:17.225Z,33
2022-10-05T01:09:18.785Z,33
2022-10-05T01:10:20.533Z,33
2022-10-05T01:11:22.178Z,33
2022-10-05T01:12:23.705Z,33
2022-10-05T01:13:25.465Z,33
2022-10-05T01:14:27.154Z,33
2022-10-05T01:15:28.697Z,33
2022-10-05T01:16:30.680Z,33
2022-10-05T01:17:32.875Z,33
2022-10-05T01:18:34.410Z,33
2022-10-05T01:19:38.591Z,33
2022-10-05T01:20:40.294Z,33
2022-10-05T01:21:41.882Z,33
2022-10-05T01:22:43.656Z,33
2022-10-05T01:23:45.284Z,33
2022-10-05T01:24:46.819Z,33
2022-10-05T01:25:48.369Z,33
2022-10-05T01:26:50.233Z,33
2022-10-05T01:27:52.035Z,33
2022-10-05T01:28:53.969Z,33
2022-10-05T01:29:55.501Z,33
2022-10-05T01:30:57.118Z,33
2022-10-05T01:31:58.823Z,33
2022-10-05T01:33:00.935Z,33
2022-10-05T01:34:02.505Z,33
2022-10-05T01:35:04.112Z,33
2022-10-05T01:36:05.618Z,33
2022-10-05T01:37:07.400Z,33
2022-10-05T01:38:08.936Z,33
2022-10-05T01:39:10.472Z,33
2022-10-05T01:40:12.131Z,33
2022-10-05T01:41:13.981Z,33.1
2022-10-05T01:42:15.707Z,33
2022-10-05T01:43:17.618Z,33
2022-10-05T01:44:19.151Z,33
2022-10-05T01:45:20.694Z,33
2022-10-05T01:46:22.501Z,33
2022-10-05T01:47:24.491Z,33
2022-10-05T01:48:26.527Z,33
2022-10-05T01:49:28.129Z,33
2022-10-05T01:50:29.778Z,33
2022-10-05T01:51:31.650Z,33.1
2022-10-05T01:52:33.459Z,33
2022-10-05T01:53:35.162Z,33
2022-10-05T01:54:36.704Z,33
2022-10-05T01:55:38.349Z,33.1
2022-10-05T01:56:39.905Z,33
2022-10-05T01:57:41.634Z,33.1
2022-10-05T01:58:43.281Z,33
2022-10-05T01:59:44.901Z,33
2022-10-05T02:00:46.627Z,33
2022-10-05T02:01:48.742Z,33
2022-10-05T02:02:50.628Z,33.1
2022-10-05T02:03:52.426Z,33
2022-10-05T02:05:02.765Z,33
2022-10-05T02:06:05.216Z,33
2022-10-05T02:07:09.728Z,33
2022-10-05T02:08:11.368Z,33
2022-10-05T02:09:12.901Z,33
2022-10-05T02:10:14.566Z,33
2022-10-05T02:11:16.279Z,33.1
2022-10-05T02:12:17.853Z,33.1
2022-10-05T02:13:19.627Z,33.1
2022-10-05T02:14:21.333Z,33.1
2022-10-05T02:15:22.858Z,33.1
2022-10-05T02:16:24.687Z,33.1
2022-10-05T02:17:26.694Z,33.1
2022-10-05T02:18:28.497Z,33.1
2022-10-05T02:19:30.316Z,33.1
2022-10-05T02:20:31.927Z,33.1
2022-10-05T02:21:33.576Z,33.1
2022-10-05T02:22:35.147Z,33.1
2022-10-05T02:23:36.798Z,33.1
2022-10-05T02:24:38.341Z,33.1
2022-10-05T02:25:39.985Z,33.1
2022-10-05T02:26:41.608Z,33.1
2022-10-05T02:27:43.147Z,33.1
2022-10-05T02:28:44.916Z,33.1
2022-10-05T02:29:46.448Z,33.1
2022-10-05T02:30:47.992Z,33.1
2022-10-05T02:31:49.826Z,33.1
2022-10-05T02:32:54.690Z,33.1
2022-10-05T02:33:56.304Z,33.1
2022-10-05T02:34:58.169Z,33.1
2022-10-05T02:35:59.750Z,33.1
2022-10-05T02:37:01.355Z,33.1
2022-10-05T02:38:02.858Z,33.1
2022-10-05T02:39:04.487Z,33.1
2022-10-05T02:40:06.298Z,33.1
2022-10-05T02:41:07.923Z,33.1
2022-10-05T02:42:09.580Z,33.2
2022-10-05T02:43:11.330Z,33.2
2022-10-05T02:44:13.032Z,33.2
2022-10-05T02:45:14.721Z,33.2
2022-10-05T02:46:16.648Z,33.2
2022-10-05T02:47:18.563Z,33.2
2022-10-05T02:48:20.196Z,33.1
2022-10-05T02:49:21.812Z,33.2
2022-10-05T02:50:23.672Z,33.2
2022-10-05T02:51:25.309Z,33.2
2022-10-05T02:52:26.953Z,33.2
2022-10-05T02:53:28.490Z,33.2
2022-10-05T02:54:30.252Z,33.2
2022-10-05T02:55:31.893Z,33.1
2022-10-05T02:56:33.533Z,33.2
2022-10-05T02:57:35.281Z,33.2
2022-10-05T02:58:36.825Z,33.2
2022-10-05T02:59:38.470Z,33.2
2022-10-05T03:00:40.022Z,33.2
2022-10-05T03:01:42.194Z,33.2
2022-10-05T03:02:44.162Z,33.2
2022-10-05T03:03:45.871Z,33.2
2022-10-05T03:04:47.538Z,33.2
2022-10-05T03:05:49.370Z,33.2
2022-10-05T03:06:50.992Z,33.3
2022-10-05T03:07:52.536Z,33.3
2022-10-05T03:08:54.523Z,33.2
2022-10-05T03:10:01.514Z,33.2
2022-10-05T03:11:03.369Z,33.2
2022-10-05T03:12:05.176Z,33.2
2022-10-05T03:13:06.713Z,33.2
2022-10-05T03:14:08.368Z,33.2
2022-10-05T03:15:10.024Z,33.2
2022-10-05T03:16:11.788Z,33.2
2022-10-05T03:17:13.747Z,33.2
2022-10-05T03:18:15.561Z,33.2
2022-10-05T03:19:17.218Z,33.2
2022-10-05T03:20:18.859Z,33.2
2022-10-05T03:21:20.597Z,33.2
2022-10-05T03:22:22.243Z,33.2
2022-10-05T03:23:23.991Z,33.2
2022-10-05T03:24:25.604Z,33.3
2022-10-05T03:25:27.143Z,33.2
2022-10-05T03:26:28.871Z,33.2
2022-10-05T03:27:30.417Z,33.2
2022-10-05T03:28:32.201Z,33.3
2022-10-05T03:29:34.214Z,33.3
2022-10-05T03:30:35.884Z,33.2
2022-10-05T03:31:37.815Z,33.2
2022-10-05T03:32:39.753Z,33.2
2022-10-05T03:33:41.361Z,33.2
2022-10-05T03:34:43.012Z,33.3
2022-10-05T03:35:44.789Z,33.2
2022-10-05T03:36:47.270Z,33.2
2022-10-05T03:37:49.808Z,33.3
2022-10-05T03:38:51.541Z,33.2
2022-10-05T03:39:53.150Z,33.1
2022-10-05T03:40:54.794Z,33.4
2022-10-05T03:41:56.338Z,33.2
2022-10-05T03:42:57.874Z,33.4
2022-10-05T03:43:59.554Z,33.2
2022-10-05T03:45:01.089Z,33.3
2022-10-05T03:46:02.794Z,33.3
2022-10-05T03:47:04.633Z,33.2
2022-10-05T03:48:06.181Z,33.4
2022-10-05T03:49:07.883Z,33.3
2022-10-05T03:50:09.500Z,33.4
2022-10-05T03:51:11.099Z,33.4
2022-10-05T03:52:12.929Z,33.3
2022-10-05T03:53:14.739Z,33.3
2022-10-05T03:54:16.288Z,33.3
2022-10-05T03:55:17.925Z,33.5
2022-10-05T03:56:19.469Z,33.3
2022-10-05T03:57:21.023Z,33.2
2022-10-05T03:58:22.578Z,33.2
2022-10-05T03:59:32.542Z,33.3
2022-10-05T04:00:34.655Z,33.4
2022-10-05T04:01:36.538Z,33.4
2022-10-05T04:02:38.648Z,33.3
2022-10-05T04:03:40.556Z,33.2
2022-10-05T04:04:42.158Z,33.3
2022-10-05T04:05:43.775Z,33.3
2022-10-05T04:06:46.076Z,33.2
2022-10-05T04:07:48.967Z,33.3
2022-10-05T04:08:50.578Z,33.4
2022-10-05T04:09:52.264Z,33.4
2022-10-05T04:10:54.106Z,33.2
2022-10-05T04:11:55.722Z,33
2022-10-05T04:12:57.397Z,33.2
2022-10-05T04:13:59.046Z,33
2022-10-05T04:15:00.573Z,33
2022-10-05T04:16:02.349Z,33.1
2022-10-05T04:17:04.222Z,33.1
2022-10-05T04:18:05.928Z,33
2022-10-05T04:19:07.457Z,32.9
2022-10-05T04:20:08.998Z,33
2022-10-05T04:21:10.567Z,33
2022-10-05T04:22:12.338Z,32.9
2022-10-05T04:23:14.154Z,32.9
2022-10-05T04:24:15.690Z,32.9
2022-10-05T04:25:17.342Z,32.9
2022-10-05T04:26:18.855Z,32.8
2022-10-05T04:27:20.641Z,32.8
2022-10-05T04:28:22.433Z,32.8
2022-10-05T04:29:24.910Z,32.7
2022-10-05T04:30:26.556Z,32.7
2022-10-05T04:31:28.228Z,32.7
2022-10-05T04:32:30.088Z,32.6
2022-10-05T04:33:31.735Z,32.5
2022-10-05T04:34:33.353Z,32.5
2022-10-05T04:35:35.029Z,32.5
2022-10-05T04:36:36.680Z,32.5
2022-10-05T04:37:39.594Z,32.5
2022-10-05T04:38:48.363Z,32.4
2022-10-05T04:39:50.086Z,32.4
2022-10-05T04:40:51.631Z,32.3
2022-10-05T04:41:53.259Z,32.3
2022-10-05T04:42:54.939Z,32.3
2022-10-05T04:43:56.467Z,32.3
2022-10-05T04:44:59.560Z,32.3
2022-10-05T04:46:04.106Z,32.3
2022-10-05T04:47:05.779Z,32.3
2022-10-05T04:48:07.871Z,32.2
2022-10-05T04:49:09.522Z,32.2
2022-10-05T04:50:11.140Z,32.2
2022-10-05T04:51:13.113Z,32.3
2022-10-05T04:52:14.764Z,32.3
2022-10-05T04:53:16.427Z,32.2
2022-10-05T04:54:18.253Z,32.2
2022-10-05T04:55:19.898Z,32.1
2022-10-05T04:56:21.544Z,32.1
2022-10-05T04:57:23.147Z,32
2022-10-05T04:58:24.804Z,32
2022-10-05T04:59:26.554Z,31.9
2022-10-05T05:00:28.093Z,31.9
2022-10-05T05:01:29.770Z,31.9
2022-10-05T05:02:31.521Z,31.7
2022-10-05T05:03:33.310Z,31.8
2022-10-05T05:04:35.134Z,31.6
2022-10-05T05:06:15.719Z,31.6
2022-10-05T05:07:20.157Z,31.6
2022-10-05T05:08:21.864Z,31.5
2022-10-05T05:09:23.650Z,31.5
2022-10-05T05:10:25.198Z,31.4
2022-10-05T05:11:26.979Z,31.5
2022-10-05T05:12:28.606Z,31.5
2022-10-05T05:13:30.282Z,31.4
2022-10-05T05:14:32.064Z,31.6
2022-10-05T05:15:33.640Z,31.6
2022-10-05T05:16:35.487Z,31.4
2022-10-05T05:17:37.494Z,31.3
2022-10-05T05:18:39.099Z,31.3
2022-10-05T05:19:40.693Z,31.2
2022-10-05T05:20:42.229Z,31.3
2022-10-05T05:21:43.813Z,31.2
2022-10-05T05:22:45.352Z,31.2
2022-10-05T05:23:47.073Z,31.2
2022-10-05T05:24:48.886Z,31.2
2022-10-05T05:25:50.655Z,31.2
2022-10-05T05:26:52.574Z,31.1
2022-10-05T05:27:54.557Z,31.1
2022-10-05T05:28:56.680Z,31
2022-10-05T05:29:58.301Z,31
2022-10-05T05:31:00.225Z,30.9
2022-10-05T05:32:02.168Z,30.8
2022-10-05T05:33:03.877Z,30.8
2022-10-05T05:34:05.440Z,30.5
2022-10-05T05:35:07.065Z,30.7
2022-10-05T05:36:08.885Z,30.8
2022-10-05T05:37:10.448Z,30.9
2022-10-05T05:38:11.984Z,30.7
2022-10-05T05:39:13.591Z,30.7
2022-10-05T05:40:15.360Z,30.8
2022-10-05T05:41:17.034Z,30.6
2022-10-05T05:42:18.584Z,30.5
2022-10-05T05:43:20.115Z,30.7
2022-10-05T05:44:21.889Z,30.6
2022-10-05T05:45:23.615Z,30.4
2022-10-05T05:47:02.735Z,30.3
2022-10-05T05:48:07.074Z,30.3
2022-10-05T05:49:08.584Z,30
2022-10-05T05:50:10.339Z,30.1
2022-10-05T05:51:11.891Z,30
2022-10-05T05:52:13.431Z,30
2022-10-05T05:53:15.066Z,29.7
2022-10-05T05:54:16.700Z,29.6
2022-10-05T05:55:18.570Z,29.9
2022-10-05T05:56:20.320Z,30
2022-10-05T05:57:21.999Z,30
2022-10-05T05:58:23.540Z,29.9
2022-10-05T05:59:25.257Z,29.8
2022-10-05T06:00:26.893Z,29.8
2022-10-05T06:01:34.130Z,29.6
2022-10-05T06:02:36.152Z,29.3
2022-10-05T06:03:38.131Z,29.8
2022-10-05T06:04:39.640Z,29.8
2022-10-05T06:05:41.180Z,29.7
2022-10-05T06:06:42.805Z,29.6
2022-10-05T06:07:44.970Z,29.6
2022-10-05T06:08:46.514Z,29.3
2022-10-05T06:09:48.293Z,29.6
2022-10-05T06:10:50.113Z,29.5
2022-10-05T06:11:51.855Z,29.5
2022-10-05T06:12:53.463Z,29.4
2022-10-05T06:13:59.895Z,29.2
2022-10-05T06:15:01.537Z,29.2
2022-10-05T06:16:03.186Z,29.1
2022-10-05T06:17:05.101Z,29
2022-10-05T06:18:06.674Z,28.5
2022-10-05T06:19:08.294Z,28.7
2022-10-05T06:20:09.908Z,28.8
2022-10-05T06:21:11.576Z,28.7
2022-10-05T06:22:13.221Z,28.8
2022-10-05T06:23:14.752Z,28.8
2022-10-05T06:24:16.410Z,28.9
2022-10-05T06:25:18.038Z,29.1
2022-10-05T06:26:20.008Z,28.9
2022-10-05T06:27:21.751Z,29
2022-10-05T06:28:23.548Z,29.1
2022-10-05T06:29:25.401Z,29.1
2022-10-05T06:30:27.148Z,29.1
2022-10-05T06:31:29.195Z,29.2
2022-10-05T06:32:31.310Z,29.3
2022-10-05T06:33:32.926Z,29.3
2022-10-05T06:34:34.707Z,28.7
2022-10-05T06:35:36.362Z,29.2
2022-10-05T06:36:38.097Z,29
2022-10-05T06:37:39.712Z,28.9
2022-10-05T06:38:41.390Z,28.9
2022-10-05T06:39:43.103Z,28.7
2022-10-05T06:40:44.890Z,28.8
2022-10-05T06:41:47.038Z,28.8
2022-10-05T06:42:48.605Z,28.9
2022-10-05T06:43:50.237Z,28.9
2022-10-05T06:44:51.793Z,28.9
2022-10-05T06:45:53.545Z,28.9
2022-10-05T06:46:55.488Z,29
2022-10-05T06:48:05.480Z,28.9
2022-10-05T06:49:07.320Z,28.6
2022-10-05T06:50:08.874Z,28.8
2022-10-05T06:51:10.652Z,28.7
2022-10-05T06:52:12.231Z,28.8
2022-10-05T06:53:13.941Z,28.7
2022-10-05T06:54:15.476Z,28.8
2022-10-05T06:55:17.111Z,28.8
2022-10-05T06:56:18.735Z,28.8
2022-10-05T06:57:20.526Z,28.7
2022-10-05T06:58:22.277Z,28.8
2022-10-05T06:59:23.815Z,28.9
2022-10-05T07:00:25.602Z,29.2
2022-10-05T07:01:27.861Z,29
2022-10-05T07:02:29.824Z,28.9
2022-10-05T07:03:31.833Z,28.8
2022-10-05T07:04:37.373Z,28.6
2022-10-05T07:05:38.952Z,28.7
2022-10-05T07:06:40.663Z,28.8
2022-10-05T07:07:42.276Z,29.1
2022-10-05T07:08:43.959Z,28.9
2022-10-05T07:09:45.685Z,29
2022-10-05T07:10:47.392Z,28.9
2022-10-05T07:11:57.465Z,28.7
2022-10-05T07:13:07.649Z,28.6
2022-10-05T07:14:09.583Z,28.7
2022-10-05T07:15:11.149Z,28.9
2022-10-05T07:16:12.899Z,28.8
2022-10-05T07:17:15.035Z,28.8
2022-10-05T07:18:19.613Z,28.7
2022-10-05T07:19:21.495Z,28.8
2022-10-05T07:20:23.463Z,28.9
2022-10-05T07:21:25.205Z,29
2022-10-05T07:22:31.836Z,29
2022-10-05T07:23:36.373Z,28.9
2022-10-05T07:24:37.900Z,28.8
2022-10-05T07:25:39.576Z,28.9
2022-10-05T07:26:41.190Z,28.9
2022-10-05T07:27:42.901Z,29
2022-10-05T07:28:45.735Z,29.1
2022-10-05T07:29:47.439Z,29
2022-10-05T07:30:49.531Z,29.1
2022-10-05T07:31:51.483Z,28.9
2022-10-05T07:32:53.208Z,28.9
2022-10-05T07:33:55.179Z,29
2022-10-05T07:34:56.746Z,29
2022-10-05T07:35:58.508Z,28.9
2022-10-05T07:37:00.109Z,28.7
2022-10-05T07:38:01.678Z,28.6
2022-10-05T07:39:03.406Z,28.6
2022-10-05T07:40:04.940Z,28.5
2022-10-05T07:41:06.571Z,28.7
2022-10-05T07:42:08.333Z,28.6
2022-10-05T07:43:10.114Z,28.6
2022-10-05T07:44:13.369Z,28.5
2022-10-05T07:45:14.951Z,28.6
2022-10-05T07:46:16.822Z,28.6
2022-10-05T07:47:18.752Z,28.7
2022-10-05T07:48:20.355Z,28.5
2022-10-05T07:49:21.895Z,28.8
2022-10-05T07:50:23.605Z,28.9
2022-10-05T07:51:25.508Z,28.8
2022-10-05T07:52:34.838Z,28.7
2022-10-05T07:53:36.677Z,28.6
2022-10-05T07:54:38.434Z,28.5
2022-10-05T07:55:40.149Z,28.5
2022-10-05T07:56:41.890Z,28.3
2022-10-05T07:57:43.684Z,28.4
2022-10-05T07:58:45.439Z,28.4
2022-10-05T07:59:47.473Z,28.5
2022-10-05T08:00:51.848Z,28.5
2022-10-05T08:01:53.592Z,28.4
2022-10-05T08:02:55.715Z,28.5
2022-10-05T08:03:57.694Z,28.3
2022-10-05T08:04:59.390Z,28.5
2022-10-05T08:06:00.962Z,28.3
2022-10-05T08:07:02.579Z,28.5
2022-10-05T08:08:04.332Z,28.5
2022-10-05T08:09:06.524Z,28.5
2022-10-05T08:10:08.837Z,28.4
2022-10-05T08:11:10.387Z,28.3
2022-10-05T08:12:12.027Z,28.2
2022-10-05T08:13:13.672Z,28.4
2022-10-05T08:14:15.316Z,28.4
2022-10-05T08:15:17.168Z,28.5
2022-10-05T08:16:18.849Z,28.7
2022-10-05T08:17:26.565Z,28.5
2022-10-05T08:18:28.449Z,28.5
2022-10-05T08:19:30.035Z,28.4
2022-10-05T08:20:31.713Z,28.3
2022-10-05T08:21:33.374Z,28.5
2022-10-05T08:22:35.242Z,28.6
2022-10-05T08:23:36.879Z,28.7
2022-10-05T08:24:38.426Z,28.7
2022-10-05T08:25:40.033Z,28.8
2022-10-05T08:26:41.721Z,28.8
2022-10-05T08:27:43.476Z,28.8
2022-10-05T08:28:47.665Z,29
2022-10-05T08:29:49.339Z,29
2022-10-05T08:30:51.269Z,28.9
2022-10-05T08:31:53.054Z,28.8
2022-10-05T08:32:54.738Z,29
2022-10-05T08:33:56.415Z,28.9
2022-10-05T08:34:58.884Z,29.1
2022-10-05T08:36:00.534Z,29.2
2022-10-05T08:37:02.263Z,29
2022-10-05T08:38:03.936Z,29.4
2022-10-05T08:39:05.561Z,29.3
2022-10-05T08:40:07.318Z,29
2022-10-05T08:41:09.058Z,28.9
2022-10-05T08:42:10.757Z,28.9
2022-10-05T08:43:12.359Z,28.8
2022-10-05T08:44:14.304Z,29.2
2022-10-05T08:45:16.505Z,29.1
2022-10-05T08:46:18.431Z,29
2022-10-05T08:47:20.526Z,29.1
2022-10-05T08:48:22.751Z,28.9
2022-10-05T08:49:24.357Z,28.9
2022-10-05T08:50:26.253Z,29.1
2022-10-05T08:51:27.940Z,28.9
2022-10-05T08:52:30.245Z,29.2
2022-10-05T08:53:32.088Z,29
2022-10-05T08:54:33.826Z,29
2022-10-05T08:55:35.569Z,28.8
2022-10-05T08:56:37.144Z,29
2022-10-05T08:57:38.759Z,29
2022-10-05T08:58:40.414Z,28.7
2022-10-05T08:59:42.055Z,28.8
2022-10-05T09:00:48.452Z,28.7
2022-10-05T09:01:51.290Z,28.8
2022-10-05T09:02:53.268Z,28.9
2022-10-05T09:03:56.573Z,28.9
2022-10-05T09:04:58.773Z,28.7
2022-10-05T09:06:00.497Z,28.7
2022-10-05T09:07:02.270Z,28.7
2022-10-05T09:08:03.916Z,28.6
2022-10-05T09:09:05.679Z,28.6
2022-10-05T09:10:07.263Z,28.7
2022-10-05T09:11:08.825Z,28.7
2022-10-05T09:12:10.455Z,28.7
2022-10-05T09:13:12.050Z,28.5
2022-10-05T09:14:13.784Z,28.4
2022-10-05T09:15:26.606Z,28.6
2022-10-05T09:16:28.834Z,28.5
2022-10-05T09:17:30.661Z,28.6
2022-10-05T09:18:32.199Z,28.6
2022-10-05T09:19:33.994Z,28.5
2022-10-05T09:20:35.569Z,28.3
2022-10-05T09:21:37.120Z,28.1
2022-10-05T09:22:38.719Z,28.1
2022-10-05T09:23:40.278Z,27.9
2022-10-05T09:24:48.557Z,27.9
2022-10-05T09:25:50.419Z,28.2
2022-10-05T09:26:51.955Z,28.2
2022-10-05T09:27:53.638Z,28.1
2022-10-05T09:28:55.521Z,28.7
2022-10-05T09:29:57.199Z,28.5
2022-10-05T09:30:59.011Z,28.3
2022-10-05T09:32:00.863Z,28.4
2022-10-05T09:33:02.862Z,28.5
2022-10-05T09:34:04.683Z,28.7
2022-10-05T09:35:06.285Z,28.3
2022-10-05T09:36:10.967Z,28.4
2022-10-05T09:37:12.933Z,28.1
2022-10-05T09:38:14.741Z,28.2
2022-10-05T09:39:16.460Z,28
2022-10-05T09:40:18.475Z,27.6
2022-10-05T09:41:20.613Z,27.7
2022-10-05T09:42:22.892Z,28.1
2022-10-05T09:43:24.745Z,28.1
2022-10-05T09:44:26.904Z,27.8
2022-10-05T09:45:28.772Z,27.9
2022-10-05T09:46:30.666Z,28
2022-10-05T09:47:32.901Z,28
2022-10-05T09:48:34.915Z,27.9
2022-10-05T09:49:36.658Z,28
2022-10-05T09:50:38.273Z,28
2022-10-05T09:51:39.997Z,28.3
2022-10-05T09:52:41.931Z,27.9
2022-10-05T09:53:43.658Z,27.9
2022-10-05T09:54:45.438Z,28.1
2022-10-05T09:55:47.207Z,28
2022-10-05T09:56:49.886Z,28
2022-10-05T09:57:53.512Z,28
2022-10-05T09:58:55.224Z,28
2022-10-05T09:59:57.105Z,28.1
2022-10-05T10:01:32.400Z,28.2
2022-10-05T10:02:36.612Z,27.4
2022-10-05T10:03:38.723Z,27.3
2022-10-05T10:04:40.551Z,27.1
2022-10-05T10:05:42.321Z,27.2
2022-10-05T10:06:44.582Z,27.4
2022-10-05T10:07:46.617Z,27.5
2022-10-05T10:08:48.272Z,27.5
2022-10-05T10:09:49.915Z,27.6
2022-10-05T10:10:52.325Z,27.4
2022-10-05T10:11:54.240Z,27.5
2022-10-05T10:12:56.062Z,27.4
2022-10-05T10:13:57.807Z,27.2
2022-10-05T10:15:03.231Z,27.5
2022-10-05T10:16:05.158Z,27.3
2022-10-05T10:17:07.002Z,27.5
2022-10-05T10:18:08.982Z,27.3
2022-10-05T10:19:10.857Z,27.3
2022-10-05T10:20:12.511Z,27.4
2022-10-05T10:21:14.346Z,27.4
2022-10-05T10:22:16.102Z,27.4
2022-10-05T10:23:17.745Z,27.1
2022-10-05T10:24:19.358Z,27.1
2022-10-05T10:25:21.143Z,27.3
2022-10-05T10:26:22.771Z,26.8
2022-10-05T10:27:24.527Z,27
2022-10-05T10:28:26.310Z,27
2022-10-05T10:29:28.070Z,27
2022-10-05T10:30:34.364Z,27.2
2022-10-05T10:31:38.233Z,27.3
2022-10-05T10:32:39.779Z,27.1
2022-10-05T10:33:41.355Z,27.3
2022-10-05T10:34:43.277Z,27.2
2022-10-05T10:35:44.855Z,27.2
2022-10-05T10:36:47.210Z,27
2022-10-05T10:37:49.719Z,26.8
2022-10-05T10:38:51.325Z,26.9
2022-10-05T10:39:52.968Z,26.8
2022-10-05T10:40:54.717Z,27
2022-10-05T10:41:59.004Z,27
2022-10-05T10:43:00.537Z,27
2022-10-05T10:44:02.178Z,27
2022-10-05T10:45:03.862Z,27
2022-10-05T10:46:05.550Z,26.9
2022-10-05T10:47:07.451Z,27
2022-10-05T10:48:08.998Z,26.9
2022-10-05T10:49:10.727Z,26.8
2022-10-05T10:50:12.490Z,26.8
2022-10-05T10:51:14.047Z,26.8
2022-10-05T10:52:15.893Z,26.7
2022-10-05T10:53:17.473Z,26.6
2022-10-05T10:54:19.250Z,26.6
2022-10-05T10:55:20.856Z,26.7
2022-10-05T10:56:25.310Z,26.4
2022-10-05T10:57:26.869Z,26.5
2022-10-05T10:58:28.433Z,26.6
2022-10-05T10:59:32.008Z,26.6
2022-10-05T11:00:33.557Z,26.6
2022-10-05T11:01:35.465Z,26.4
2022-10-05T11:02:37.599Z,26.6
2022-10-05T11:03:39.408Z,26.9
2022-10-05T11:04:40.948Z,26.8
2022-10-05T11:05:48.983Z,26.6
2022-10-05T11:06:50.914Z,26.7
2022-10-05T11:07:52.455Z,26.7
2022-10-05T11:08:53.987Z,26.7
2022-10-05T11:09:55.627Z,26.5
2022-10-05T11:10:57.166Z,26.8
2022-10-05T11:11:58.920Z,26.6
2022-10-05T11:13:00.544Z,26.8
2022-10-05T11:14:02.106Z,26.8
2022-10-05T11:15:03.796Z,26.6
2022-10-05T11:16:08.669Z,26.6
2022-10-05T11:17:10.725Z,26.7
2022-10-05T11:18:12.374Z,26.7
2022-10-05T11:19:14.021Z,26.8
2022-10-05T11:20:15.787Z,26.7
2022-10-05T11:21:17.709Z,26.8
2022-10-05T11:22:19.471Z,26.6
2022-10-05T11:23:21.007Z,26.6
2022-10-05T11:24:22.689Z,26.6
2022-10-05T11:25:24.272Z,26.8
2022-10-05T11:26:26.046Z,26.8
2022-10-05T11:27:27.807Z,26.9
2022-10-05T11:28:29.696Z,26.7
2022-10-05T11:29:31.843Z,26.7
2022-10-05T11:30:33.371Z,26.8
2022-10-05T11:31:35.209Z,26.5
2022-10-05T11:32:37.257Z,26.8
2022-10-05T11:33:38.867Z,26.7
2022-10-05T11:34:40.498Z,26.4
2022-10-05T11:35:42.315Z,26.4
2022-10-05T11:36:44.056Z,26.4
2022-10-05T11:37:45.609Z,26.5
2022-10-05T11:38:47.243Z,26.4
2022-10-05T11:39:48.853Z,26.4
2022-10-05T11:40:50.372Z,26.1
2022-10-05T11:41:51.941Z,26.1
2022-10-05T11:42:53.536Z,26.4
2022-10-05T11:43:55.150Z,26.4
2022-10-05T11:44:56.770Z,26.2
2022-10-05T11:45:58.373Z,26.2
2022-10-05T11:47:00.383Z,26.2
2022-10-05T11:48:02.139Z,26.2
2022-10-05T11:49:03.890Z,25.9
2022-10-05T11:50:05.537Z,26.3
2022-10-05T11:51:07.162Z,26.2
2022-10-05T11:52:09.024Z,26.2
2022-10-05T11:53:10.666Z,26
2022-10-05T11:54:12.216Z,26.1
2022-10-05T11:55:13.863Z,26.1
2022-10-05T11:56:15.790Z,26.3
2022-10-05T11:57:17.447Z,25.8
2022-10-05T11:58:19.068Z,25.9
2022-10-05T11:59:20.630Z,26.1
2022-10-05T12:00:22.330Z,26
2022-10-05T12:01:24.356Z,25.8
2022-10-05T12:02:26.097Z,25.8
2022-10-05T12:03:28.214Z,25.9
2022-10-05T12:04:30.456Z,26
2022-10-05T12:05:32.257Z,25.7
2022-10-05T12:06:33.892Z,26
2022-10-05T12:07:35.723Z,26
2022-10-05T12:08:37.379Z,26
2022-10-05T12:09:38.923Z,26
2022-10-05T12:10:43.445Z,26
2022-10-05T12:11:45.086Z,26
2022-10-05T12:12:46.717Z,26
2022-10-05T12:13:48.447Z,26
2022-10-05T12:14:50.139Z,26.1
2022-10-05T12:15:51.931Z,26
2022-10-05T12:16:53.830Z,26
2022-10-05T12:17:55.489Z,26.1
2022-10-05T12:18:57.035Z,26.1
2022-10-05T12:19:58.685Z,26.2
2022-10-05T12:21:00.249Z,26.2
2022-10-05T12:22:02.003Z,26.3
2022-10-05T12:23:03.817Z,26.3
2022-10-05T12:24:05.498Z,26.4
2022-10-05T12:25:07.199Z,26.3
2022-10-05T12:26:08.945Z,26.4
2022-10-05T12:27:10.592Z,26.4
2022-10-05T12:28:12.228Z,26.2
2022-10-05T12:29:14.025Z,26.3
2022-10-05T12:30:15.617Z,26.3
2022-10-05T12:31:17.407Z,26.2
2022-10-05T12:32:19.286Z,26
2022-10-05T12:33:23.847Z,26.2
2022-10-05T12:34:25.494Z,26
2022-10-05T12:35:48.614Z,26.1
2022-10-05T12:37:06.281Z,26
2022-10-05T12:38:08.101Z,25.9
2022-10-05T12:39:09.747Z,26
2022-10-05T12:40:11.619Z,26
2022-10-05T12:41:13.160Z,26
2022-10-05T12:42:14.787Z,26
2022-10-05T12:43:16.432Z,26
2022-10-05T12:44:18.075Z,26
2022-10-05T12:45:19.637Z,26.1
2022-10-05T12:46:21.286Z,26.1
2022-10-05T12:47:22.883Z,26.1
2022-10-05T12:48:24.547Z,26.1
2022-10-05T12:49:26.124Z,26.1
2022-10-05T12:50:27.760Z,26.1
2022-10-05T12:51:29.506Z,26.1
2022-10-05T12:52:31.234Z,26.2
2022-10-05T12:53:33.199Z,26.2
2022-10-05T12:54:34.845Z,26.2
2022-10-05T12:55:36.398Z,26.2
2022-10-05T12:56:38.100Z,26.1
2022-10-05T12:57:39.754Z,26.2
2022-10-05T12:58:41.315Z,26.2
2022-10-05T12:59:42.905Z,26.2
2022-10-05T13:00:44.638Z,26.4
2022-10-05T13:01:46.570Z,26.3
2022-10-05T13:02:48.515Z,26.3
2022-10-05T13:03:50.158Z,26.4
2022-10-05T13:04:51.807Z,26.4
2022-10-05T13:05:53.522Z,26.4
2022-10-05T13:06:55.299Z,26.4
2022-10-05T13:07:57.053Z,26.6
2022-10-05T13:08:58.896Z,26.6
2022-10-05T13:10:00.634Z,26.5
2022-10-05T13:11:02.529Z,26.5
2022-10-05T13:12:04.245Z,26.6
2022-10-05T13:13:05.887Z,26.6
2022-10-05T13:14:07.530Z,26.6
2022-10-05T13:15:09.175Z,26.8
2022-10-05T13:16:11.788Z,26.7
2022-10-05T13:17:14.515Z,26.8
2022-10-05T13:18:16.576Z,26.8
2022-10-05T13:19:19.851Z,26.9
2022-10-05T13:20:21.878Z,26.9
2022-10-05T13:21:23.654Z,26.9
2022-10-05T13:22:25.215Z,26.9
2022-10-05T13:23:26.970Z,26.9
2022-10-05T13:24:28.810Z,26.8
2022-10-05T13:25:30.469Z,26.8
2022-10-05T13:26:32.089Z,26.9
2022-10-05T13:27:33.692Z,26.9
2022-10-05T13:28:35.844Z,26.5
2022-10-05T13:29:37.784Z,26.5
2022-10-05T13:30:39.434Z,26.2
2022-10-05T13:31:41.249Z,26.2
2022-10-05T13:32:43.220Z,26.5
2022-10-05T13:33:44.934Z,26.6
2022-10-05T13:34:46.675Z,26.4
2022-10-05T13:35:48.271Z,26.6
2022-10-05T13:36:49.874Z,26.8
2022-10-05T13:37:51.540Z,26.6
2022-10-05T13:38:56.050Z,25.9
2022-10-05T13:39:57.963Z,26.4
2022-10-05T13:40:59.531Z,26
2022-10-05T13:42:01.114Z,25.8
2022-10-05T13:43:02.707Z,26.2
2022-10-05T13:44:04.544Z,26.4
2022-10-05T13:45:06.419Z,26
2022-10-05T13:46:08.396Z,26.4
2022-10-05T13:47:10.249Z,26.6
2022-10-05T13:48:12.031Z,26.3
2022-10-05T13:49:13.716Z,26
2022-10-05T13:50:15.419Z,26.2
2022-10-05T13:51:17.101Z,26.6
2022-10-05T13:52:18.796Z,26.2
2022-10-05T13:53:20.422Z,26.3
2022-10-05T13:54:22.008Z,26.2
2022-10-05T13:55:23.891Z,26.3
2022-10-05T13:56:25.573Z,26.2